sensor_id;sensor_type;location;lat;lon;timestamp;pressure;altitude;pressure_sealevel;temperature;humidity
42337;BME280;27987;51.468;5.464;2022-07-23T00:01:22;101680.00;;;17.77;97.57
42337;BME280;27987;51.468;5.464;2022-07-23T00:03:52;101679.88;;;17.79;97.35
42337;BME280;27987;51.468;5.464;2022-07-23T00:06:21;101685.75;;;17.83;97.15
42337;BME280;27987;51.468;5.464;2022-07-23T00:08:50;101682.75;;;17.89;97.96
42337;BME280;27987;51.468;5.464;2022-07-23T00:11:18;101684.66;;;17.87;97.63
42337;BME280;27987;51.468;5.464;2022-07-23T00:13:45;101683.88;;;17.85;96.77
42337;BME280;27987;51.468;5.464;2022-07-23T00:16:12;101680.94;;;17.89;96.87
42337;BME280;27987;51.468;5.464;2022-07-23T00:18:39;101683.69;;;17.88;97.07
42337;BME280;27987;51.468;5.464;2022-07-23T00:21:07;101681.69;;;17.91;97.49
42337;BME280;27987;51.468;5.464;2022-07-23T00:23:35;101683.38;;;17.92;96.89
42337;BME280;27987;51.468;5.464;2022-07-23T00:26:02;101688.38;;;17.95;97.81
42337;BME280;27987;51.468;5.464;2022-07-23T00:28:29;101684.66;;;17.87;97.60
42337;BME280;27987;51.468;5.464;2022-07-23T00:30:56;101681.78;;;17.90;97.14
42337;BME280;27987;51.468;5.464;2022-07-23T00:33:23;101682.59;;;17.90;96.72
42337;BME280;27987;51.468;5.464;2022-07-23T00:35:50;101680.84;;;17.78;96.67
42337;BME280;27987;51.468;5.464;2022-07-23T00:38:16;101678.31;;;17.76;96.18
42337;BME280;27987;51.468;5.464;2022-07-23T00:40:45;101681.69;;;17.66;96.97
42337;BME280;27987;51.468;5.464;2022-07-23T00:43:14;101673.53;;;17.57;97.15
42337;BME280;27987;51.468;5.464;2022-07-23T00:45:44;101679.50;;;17.59;97.08
42337;BME280;27987;51.468;5.464;2022-07-23T00:48:11;101678.97;;;17.54;97.47
42337;BME280;27987;51.468;5.464;2022-07-23T00:50:38;101676.78;;;17.48;98.16
42337;BME280;27987;51.468;5.464;2022-07-23T00:53:05;101668.81;;;17.50;98.58
42337;BME280;27987;51.468;5.464;2022-07-23T00:55:34;101674.19;;;17.35;98.96
42337;BME280;27987;51.468;5.464;2022-07-23T00:58:02;101676.19;;;17.32;98.49
42337;BME280;27987;51.468;5.464;2022-07-23T01:00:29;101670.59;;;17.36;98.31
42337;BME280;27987;51.468;5.464;2022-07-23T01:02:56;101668.50;;;17.41;98.15
42337;BME280;27987;51.468;5.464;2022-07-23T01:05:24;101662.41;;;17.41;97.87
42337;BME280;27987;51.468;5.464;2022-07-23T01:07:51;101666.19;;;17.37;98.81
42337;BME280;27987;51.468;5.464;2022-07-23T01:10:18;101658.00;;;17.29;98.69
42337;BME280;27987;51.468;5.464;2022-07-23T01:12:58;101664.84;;;17.31;98.84
42337;BME280;27987;51.468;5.464;2022-07-23T01:15:27;101662.31;;;17.30;99.00
42337;BME280;27987;51.468;5.464;2022-07-23T01:17:56;101676.81;;;17.22;99.27
42337;BME280;27987;51.468;5.464;2022-07-23T01:20:25;101671.75;;;17.19;99.93
42337;BME280;27987;51.468;5.464;2022-07-23T01:22:58;101665.56;;;17.08;100.00
42337;BME280;27987;51.468;5.464;2022-07-23T01:25:34;101665.38;;;17.11;100.00
42337;BME280;27987;51.468;5.464;2022-07-23T01:28:01;101651.16;;;16.88;100.00
42337;BME280;27987;51.468;5.464;2022-07-23T01:30:29;101657.03;;;16.91;100.00
42337;BME280;27987;51.468;5.464;2022-07-23T01:32:56;101651.38;;;16.85;100.00
42337;BME280;27987;51.468;5.464;2022-07-23T01:35:23;101660.50;;;16.92;100.00
42337;BME280;27987;51.468;5.464;2022-07-23T01:37:50;101662.94;;;16.95;100.00
42337;BME280;27987;51.468;5.464;2022-07-23T01:40:18;101668.38;;;16.92;100.00
42337;BME280;27987;51.468;5.464;2022-07-23T01:42:45;101666.72;;;16.91;100.00
42337;BME280;27987;51.468;5.464;2022-07-23T01:45:12;101649.50;;;16.87;100.00
42337;BME280;27987;51.468;5.464;2022-07-23T01:47:39;101652.47;;;16.80;100.00
42337;BME280;27987;51.468;5.464;2022-07-23T01:50:07;101656.34;;;16.75;100.00
42337;BME280;27987;51.468;5.464;2022-07-23T01:52:35;101658.34;;;16.71;100.00
42337;BME280;27987;51.468;5.464;2022-07-23T01:55:03;101640.19;;;16.68;100.00
42337;BME280;27987;51.468;5.464;2022-07-23T01:57:33;101655.53;;;16.74;100.00
42337;BME280;27987;51.468;5.464;2022-07-23T02:00:00;101656.69;;;16.70;100.00
42337;BME280;27987;51.468;5.464;2022-07-23T02:02:30;101648.03;;;16.55;100.00
42337;BME280;27987;51.468;5.464;2022-07-23T02:05:01;101645.19;;;16.58;100.00
42337;BME280;27987;51.468;5.464;2022-07-23T02:07:33;101646.19;;;16.70;100.00
42337;BME280;27987;51.468;5.464;2022-07-23T02:10:01;101648.91;;;16.69;100.00
42337;BME280;27987;51.468;5.464;2022-07-23T02:12:28;101643.03;;;16.65;100.00
42337;BME280;27987;51.468;5.464;2022-07-23T02:14:56;101645.53;;;16.67;100.00
42337;BME280;27987;51.468;5.464;2022-07-23T02:17:23;101643.84;;;16.65;100.00
42337;BME280;27987;51.468;5.464;2022-07-23T02:19:52;101649.00;;;16.67;100.00
42337;BME280;27987;51.468;5.464;2022-07-23T02:22:19;101649.84;;;16.68;100.00
42337;BME280;27987;51.468;5.464;2022-07-23T02:24:46;101642.19;;;16.64;100.00
42337;BME280;27987;51.468;5.464;2022-07-23T02:27:13;101638.19;;;16.59;100.00
42337;BME280;27987;51.468;5.464;2022-07-23T02:29:40;101628.50;;;16.47;100.00
42337;BME280;27987;51.468;5.464;2022-07-23T02:32:08;101635.13;;;16.52;100.00
42337;BME280;27987;51.468;5.464;2022-07-23T02:34:35;101641.97;;;16.55;100.00
42337;BME280;27987;51.468;5.464;2022-07-23T02:37:02;101648.13;;;16.54;100.00
42337;BME280;27987;51.468;5.464;2022-07-23T02:39:29;101643.94;;;16.51;100.00
42337;BME280;27987;51.468;5.464;2022-07-23T02:41:56;101651.19;;;16.48;100.00
42337;BME280;27987;51.468;5.464;2022-07-23T02:44:26;101649.56;;;16.45;100.00
42337;BME280;27987;51.468;5.464;2022-07-23T02:46:53;101647.28;;;16.40;100.00
42337;BME280;27987;51.468;5.464;2022-07-23T02:49:21;101638.84;;;16.35;100.00
42337;BME280;27987;51.468;5.464;2022-07-23T02:51:48;101643.78;;;16.27;100.00
42337;BME280;27987;51.468;5.464;2022-07-23T02:54:15;101644.78;;;16.24;100.00
42337;BME280;27987;51.468;5.464;2022-07-23T02:56:42;101649.13;;;16.25;100.00
42337;BME280;27987;51.468;5.464;2022-07-23T02:59:09;101644.88;;;16.23;100.00
42337;BME280;27987;51.468;5.464;2022-07-23T03:01:36;101648.47;;;16.22;100.00
42337;BME280;27987;51.468;5.464;2022-07-23T03:04:03;101650.53;;;16.17;100.00
42337;BME280;27987;51.468;5.464;2022-07-23T03:06:33;101651.28;;;16.19;100.00
42337;BME280;27987;51.468;5.464;2022-07-23T03:09:00;101653.56;;;16.11;100.00
42337;BME280;27987;51.468;5.464;2022-07-23T03:11:27;101655.63;;;16.05;100.00
42337;BME280;27987;51.468;5.464;2022-07-23T03:14:02;101653.28;;;16.01;100.00
42337;BME280;27987;51.468;5.464;2022-07-23T03:16:47;101648.25;;;15.98;100.00
42337;BME280;27987;51.468;5.464;2022-07-23T03:19:28;101656.88;;;16.00;100.00
42337;BME280;27987;51.468;5.464;2022-07-23T03:22:07;101662.66;;;16.05;100.00
42337;BME280;27987;51.468;5.464;2022-07-23T03:24:34;101658.44;;;16.02;100.00
42337;BME280;27987;51.468;5.464;2022-07-23T03:27:19;101671.44;;;16.04;100.00
42337;BME280;27987;51.468;5.464;2022-07-23T03:29:46;101668.81;;;16.04;100.00
42337;BME280;27987;51.468;5.464;2022-07-23T03:32:13;101664.63;;;16.01;100.00
42337;BME280;27987;51.468;5.464;2022-07-23T03:34:40;101659.88;;;15.94;100.00
42337;BME280;27987;51.468;5.464;2022-07-23T03:37:08;101660.81;;;15.93;100.00
42337;BME280;27987;51.468;5.464;2022-07-23T03:39:35;101679.06;;;15.94;100.00
42337;BME280;27987;51.468;5.464;2022-07-23T03:42:02;101672.13;;;15.93;100.00
42337;BME280;27987;51.468;5.464;2022-07-23T03:44:29;101665.72;;;15.84;100.00
42337;BME280;27987;51.468;5.464;2022-07-23T03:46:56;101678.16;;;15.81;100.00
42337;BME280;27987;51.468;5.464;2022-07-23T03:49:23;101683.41;;;15.81;100.00
42337;BME280;27987;51.468;5.464;2022-07-23T03:51:50;101681.53;;;15.83;100.00
42337;BME280;27987;51.468;5.464;2022-07-23T03:54:18;101678.16;;;15.81;100.00
42337;BME280;27987;51.468;5.464;2022-07-23T03:56:46;101680.13;;;15.77;100.00
42337;BME280;27987;51.468;5.464;2022-07-23T03:59:13;101679.28;;;15.77;100.00
42337;BME280;27987;51.468;5.464;2022-07-23T04:01:40;101666.72;;;15.82;100.00
42337;BME280;27987;51.468;5.464;2022-07-23T04:04:06;101674.59;;;15.82;100.00
42337;BME280;27987;51.468;5.464;2022-07-23T04:06:34;101676.47;;;15.80;100.00
42337;BME280;27987;51.468;5.464;2022-07-23T04:09:01;101670.09;;;15.84;100.00
42337;BME280;27987;51.468;5.464;2022-07-23T04:11:31;101683.31;;;15.82;100.00
42337;BME280;27987;51.468;5.464;2022-07-23T04:13:58;101679.34;;;15.90;100.00
42337;BME280;27987;51.468;5.464;2022-07-23T04:16:25;101672.53;;;15.87;100.00
42337;BME280;27987;51.468;5.464;2022-07-23T04:18:52;101682.34;;;15.83;100.00
42337;BME280;27987;51.468;5.464;2022-07-23T04:21:19;101683.84;;;15.87;100.00
42337;BME280;27987;51.468;5.464;2022-07-23T04:23:46;101694.88;;;15.93;100.00
42337;BME280;27987;51.468;5.464;2022-07-23T04:26:13;101696.56;;;15.94;100.00
42337;BME280;27987;51.468;5.464;2022-07-23T04:28:41;101694.78;;;15.94;100.00
42337;BME280;27987;51.468;5.464;2022-07-23T04:31:08;101696.38;;;15.97;100.00
42337;BME280;27987;51.468;5.464;2022-07-23T04:33:35;101693.56;;;16.00;100.00
42337;BME280;27987;51.468;5.464;2022-07-23T04:36:02;101706.56;;;16.01;100.00
42337;BME280;27987;51.468;5.464;2022-07-23T04:38:29;101702.81;;;16.05;100.00
42337;BME280;27987;51.468;5.464;2022-07-23T04:40:58;101702.50;;;16.10;100.00
42337;BME280;27987;51.468;5.464;2022-07-23T04:43:30;101702.41;;;16.12;100.00
42337;BME280;27987;51.468;5.464;2022-07-23T04:45:58;101707.38;;;16.16;100.00
42337;BME280;27987;51.468;5.464;2022-07-23T04:48:25;101713.06;;;16.23;100.00
42337;BME280;27987;51.468;5.464;2022-07-23T04:50:52;101711.81;;;16.29;100.00
42337;BME280;27987;51.468;5.464;2022-07-23T04:53:19;101715.97;;;16.33;100.00
42337;BME280;27987;51.468;5.464;2022-07-23T04:55:46;101713.03;;;16.37;100.00
42337;BME280;27987;51.468;5.464;2022-07-23T04:58:13;101722.19;;;16.44;100.00
42337;BME280;27987;51.468;5.464;2022-07-23T05:00:40;101713.50;;;16.44;100.00
42337;BME280;27987;51.468;5.464;2022-07-23T05:03:08;101715.41;;;16.55;100.00
42337;BME280;27987;51.468;5.464;2022-07-23T05:05:35;101713.53;;;16.57;100.00
42337;BME280;27987;51.468;5.464;2022-07-23T05:08:02;101724.66;;;16.60;100.00
42337;BME280;27987;51.468;5.464;2022-07-23T05:10:30;101706.50;;;16.57;100.00
42337;BME280;27987;51.468;5.464;2022-07-23T05:13:02;101711.28;;;16.78;100.00
42337;BME280;27987;51.468;5.464;2022-07-23T05:15:29;101715.31;;;16.83;99.41
42337;BME280;27987;51.468;5.464;2022-07-23T05:17:56;101720.13;;;16.90;99.23
42337;BME280;27987;51.468;5.464;2022-07-23T05:20:27;101722.75;;;16.90;99.65
42337;BME280;27987;51.468;5.464;2022-07-23T05:22:54;101725.75;;;17.11;98.47
42337;BME280;27987;51.468;5.464;2022-07-23T05:25:21;101718.81;;;17.22;98.04
42337;BME280;27987;51.468;5.464;2022-07-23T05:27:48;101725.78;;;17.24;97.45
42337;BME280;27987;51.468;5.464;2022-07-23T05:30:15;101725.22;;;17.18;97.23
42337;BME280;27987;51.468;5.464;2022-07-23T05:32:42;101729.44;;;17.34;96.28
42337;BME280;27987;51.468;5.464;2022-07-23T05:35:09;101718.94;;;17.59;95.53
42337;BME280;27987;51.468;5.464;2022-07-23T05:37:37;101719.66;;;17.74;94.79
42337;BME280;27987;51.468;5.464;2022-07-23T05:40:11;101729.09;;;17.90;94.18
42337;BME280;27987;51.468;5.464;2022-07-23T05:42:39;101733.88;;;18.09;93.00
42337;BME280;27987;51.468;5.464;2022-07-23T05:45:08;101735.31;;;17.89;92.87
42337;BME280;27987;51.468;5.464;2022-07-23T05:47:42;101734.56;;;18.24;91.82
42337;BME280;27987;51.468;5.464;2022-07-23T05:50:10;101734.78;;;18.33;89.85
42337;BME280;27987;51.468;5.464;2022-07-23T05:52:40;101743.34;;;18.24;90.29
42337;BME280;27987;51.468;5.464;2022-07-23T05:55:10;101745.56;;;18.42;89.79
42337;BME280;27987;51.468;5.464;2022-07-23T05:57:38;101748.00;;;18.45;90.25
42337;BME280;27987;51.468;5.464;2022-07-23T06:00:07;101761.13;;;18.82;88.75
42337;BME280;27987;51.468;5.464;2022-07-23T06:02:35;101750.78;;;18.79;86.84
42337;BME280;27987;51.468;5.464;2022-07-23T06:05:02;101756.56;;;18.60;86.61
42337;BME280;27987;51.468;5.464;2022-07-23T06:07:28;101753.97;;;18.71;85.57
42337;BME280;27987;51.468;5.464;2022-07-23T06:09:57;101763.09;;;18.78;86.19
42337;BME280;27987;51.468;5.464;2022-07-23T06:12:25;101760.78;;;18.98;84.00
42337;BME280;27987;51.468;5.464;2022-07-23T06:14:52;101764.22;;;18.87;84.76
42337;BME280;27987;51.468;5.464;2022-07-23T06:17:19;101760.00;;;19.08;83.88
42337;BME280;27987;51.468;5.464;2022-07-23T06:19:46;101763.63;;;19.19;82.91
42337;BME280;27987;51.468;5.464;2022-07-23T06:22:13;101761.47;;;19.24;82.02
42337;BME280;27987;51.468;5.464;2022-07-23T06:24:40;101760.31;;;19.39;82.04
42337;BME280;27987;51.468;5.464;2022-07-23T06:27:08;101760.56;;;19.59;80.95
42337;BME280;27987;51.468;5.464;2022-07-23T06:29:35;101757.81;;;19.71;81.06
42337;BME280;27987;51.468;5.464;2022-07-23T06:32:05;101746.88;;;19.53;79.09
42337;BME280;27987;51.468;5.464;2022-07-23T06:34:34;101762.38;;;19.58;79.65
42337;BME280;27987;51.468;5.464;2022-07-23T06:37:03;101767.03;;;19.54;79.27
42337;BME280;27987;51.468;5.464;2022-07-23T06:39:30;101765.63;;;19.73;77.67
42337;BME280;27987;51.468;5.464;2022-07-23T06:41:56;101773.66;;;19.83;77.40
42337;BME280;27987;51.468;5.464;2022-07-23T06:44:25;101761.91;;;19.87;75.73
42337;BME280;27987;51.468;5.464;2022-07-23T06:46:52;101771.13;;;19.92;76.32
42337;BME280;27987;51.468;5.464;2022-07-23T06:49:19;101777.38;;;20.03;77.52
42337;BME280;27987;51.468;5.464;2022-07-23T06:51:46;101774.34;;;20.19;74.92
42337;BME280;27987;51.468;5.464;2022-07-23T06:54:13;101775.97;;;20.42;74.09
42337;BME280;27987;51.468;5.464;2022-07-23T06:56:40;101782.13;;;20.31;73.10
42337;BME280;27987;51.468;5.464;2022-07-23T06:59:07;101775.81;;;20.11;74.13
42337;BME280;27987;51.468;5.464;2022-07-23T07:01:35;101772.28;;;20.22;73.59
42337;BME280;27987;51.468;5.464;2022-07-23T07:04:11;101771.75;;;20.51;73.46
42337;BME280;27987;51.468;5.464;2022-07-23T07:06:38;101766.25;;;20.43;72.77
42337;BME280;27987;51.468;5.464;2022-07-23T07:09:06;101770.78;;;20.52;74.11
42337;BME280;27987;51.468;5.464;2022-07-23T07:11:33;101767.25;;;20.74;72.71
42337;BME280;27987;51.468;5.464;2022-07-23T07:14:00;101769.31;;;20.71;71.31
42337;BME280;27987;51.468;5.464;2022-07-23T07:16:30;101769.13;;;20.51;71.19
42337;BME280;27987;51.468;5.464;2022-07-23T07:18:58;101758.69;;;20.82;70.65
42337;BME280;27987;51.468;5.464;2022-07-23T07:21:25;101767.91;;;20.99;70.22
42337;BME280;27987;51.468;5.464;2022-07-23T07:23:52;101773.19;;;20.87;70.27
42337;BME280;27987;51.468;5.464;2022-07-23T07:26:19;101768.78;;;21.09;67.13
42337;BME280;27987;51.468;5.464;2022-07-23T07:28:46;101768.53;;;21.33;66.48
42337;BME280;27987;51.468;5.464;2022-07-23T07:31:13;101778.13;;;21.13;67.08
42337;BME280;27987;51.468;5.464;2022-07-23T07:33:40;101777.03;;;21.16;66.67
42337;BME280;27987;51.468;5.464;2022-07-23T07:36:09;101784.13;;;21.15;65.85
42337;BME280;27987;51.468;5.464;2022-07-23T07:38:36;101788.56;;;21.15;65.47
42337;BME280;27987;51.468;5.464;2022-07-23T07:41:02;101790.78;;;21.31;64.14
42337;BME280;27987;51.468;5.464;2022-07-23T07:43:29;101790.56;;;21.64;64.48
42337;BME280;27987;51.468;5.464;2022-07-23T07:45:56;101782.06;;;21.61;63.77
42337;BME280;27987;51.468;5.464;2022-07-23T07:48:24;101769.56;;;21.73;64.24
42337;BME280;27987;51.468;5.464;2022-07-23T07:50:51;101783.66;;;21.73;62.67
42337;BME280;27987;51.468;5.464;2022-07-23T07:53:19;101783.19;;;21.99;61.53
42337;BME280;27987;51.468;5.464;2022-07-23T07:55:46;101780.16;;;22.13;62.05
42337;BME280;27987;51.468;5.464;2022-07-23T07:58:13;101784.50;;;22.14;63.61
42337;BME280;27987;51.468;5.464;2022-07-23T08:00:40;101782.09;;;22.52;62.18
42337;BME280;27987;51.468;5.464;2022-07-23T08:03:10;101791.16;;;22.69;62.12
42337;BME280;27987;51.468;5.464;2022-07-23T08:05:40;101786.81;;;22.48;59.68
42337;BME280;27987;51.468;5.464;2022-07-23T08:08:07;101783.72;;;22.33;59.86
42337;BME280;27987;51.468;5.464;2022-07-23T08:10:36;101790.72;;;22.03;60.65
42337;BME280;27987;51.468;5.464;2022-07-23T08:13:03;101788.72;;;21.86;59.41
42337;BME280;27987;51.468;5.464;2022-07-23T08:15:30;101788.34;;;22.00;59.69
42337;BME280;27987;51.468;5.464;2022-07-23T08:18:02;101790.22;;;22.19;60.81
42337;BME280;27987;51.468;5.464;2022-07-23T08:20:28;101791.38;;;22.27;60.18
42337;BME280;27987;51.468;5.464;2022-07-23T08:22:58;101786.13;;;22.36;57.30
42337;BME280;27987;51.468;5.464;2022-07-23T08:25:26;101784.00;;;22.30;58.61
42337;BME280;27987;51.468;5.464;2022-07-23T08:27:56;101791.72;;;22.72;57.55
42337;BME280;27987;51.468;5.464;2022-07-23T08:30:27;101796.03;;;22.64;56.84
42337;BME280;27987;51.468;5.464;2022-07-23T08:32:56;101797.59;;;23.15;55.59
42337;BME280;27987;51.468;5.464;2022-07-23T08:35:27;101800.94;;;23.07;55.81
42337;BME280;27987;51.468;5.464;2022-07-23T08:37:55;101797.88;;;23.12;55.66
42337;BME280;27987;51.468;5.464;2022-07-23T08:40:24;101800.06;;;22.97;59.95
42337;BME280;27987;51.468;5.464;2022-07-23T08:42:52;101798.84;;;23.21;57.79
42337;BME280;27987;51.468;5.464;2022-07-23T08:45:29;101805.63;;;23.43;57.34
42337;BME280;27987;51.468;5.464;2022-07-23T08:48:00;101807.28;;;23.44;55.27
42337;BME280;27987;51.468;5.464;2022-07-23T08:50:27;101807.47;;;23.32;56.45
42337;BME280;27987;51.468;5.464;2022-07-23T08:52:54;101804.72;;;23.81;58.33
42337;BME280;27987;51.468;5.464;2022-07-23T08:55:32;101803.03;;;23.70;55.50
42337;BME280;27987;51.468;5.464;2022-07-23T08:58:02;101807.91;;;23.85;55.82
42337;BME280;27987;51.468;5.464;2022-07-23T09:00:44;101805.19;;;23.57;54.24
42337;BME280;27987;51.468;5.464;2022-07-23T09:03:20;101812.31;;;23.47;53.85
42337;BME280;27987;51.468;5.464;2022-07-23T09:05:50;101805.53;;;23.25;54.80
42337;BME280;27987;51.468;5.464;2022-07-23T09:08:23;101801.44;;;23.40;58.30
42337;BME280;27987;51.468;5.464;2022-07-23T09:10:53;101803.25;;;23.96;54.00
42337;BME280;27987;51.468;5.464;2022-07-23T09:13:28;101797.97;;;23.77;52.77
42337;BME280;27987;51.468;5.464;2022-07-23T09:15:59;101786.53;;;23.76;52.03
42337;BME280;27987;51.468;5.464;2022-07-23T09:18:39;101794.94;;;23.82;50.96
42337;BME280;27987;51.468;5.464;2022-07-23T09:21:13;101792.50;;;24.16;51.16
42337;BME280;27987;51.468;5.464;2022-07-23T09:23:44;101787.50;;;23.85;54.82
42337;BME280;27987;51.468;5.464;2022-07-23T09:26:34;101781.91;;;24.34;51.84
42337;BME280;27987;51.468;5.464;2022-07-23T09:29:09;101782.84;;;23.97;52.38
42337;BME280;27987;51.468;5.464;2022-07-23T09:31:47;101792.38;;;23.90;52.16
42337;BME280;27987;51.468;5.464;2022-07-23T09:34:19;101796.72;;;24.09;51.96
42337;BME280;27987;51.468;5.464;2022-07-23T09:36:46;101794.38;;;24.51;49.37
42337;BME280;27987;51.468;5.464;2022-07-23T09:39:26;101799.47;;;24.45;48.92
42337;BME280;27987;51.468;5.464;2022-07-23T09:41:54;101806.34;;;24.38;52.47
42337;BME280;27987;51.468;5.464;2022-07-23T09:44:21;101802.03;;;24.37;50.27
42337;BME280;27987;51.468;5.464;2022-07-23T09:46:51;101809.16;;;24.36;49.63
42337;BME280;27987;51.468;5.464;2022-07-23T09:49:24;101819.38;;;24.31;49.93
42337;BME280;27987;51.468;5.464;2022-07-23T09:51:55;101808.13;;;25.01;49.38
42337;BME280;27987;51.468;5.464;2022-07-23T09:54:31;101805.53;;;25.53;47.92
42337;BME280;27987;51.468;5.464;2022-07-23T09:57:03;101803.06;;;26.37;44.82
42337;BME280;27987;51.468;5.464;2022-07-23T09:59:34;101802.81;;;26.64;45.07
42337;BME280;27987;51.468;5.464;2022-07-23T10:02:05;101794.47;;;27.33;44.92
42337;BME280;27987;51.468;5.464;2022-07-23T10:04:33;101793.34;;;27.75;43.21
42337;BME280;27987;51.468;5.464;2022-07-23T10:07:02;101796.75;;;28.63;40.38
42337;BME280;27987;51.468;5.464;2022-07-23T10:09:32;101797.41;;;28.88;38.78
42337;BME280;27987;51.468;5.464;2022-07-23T10:12:02;101800.63;;;27.98;37.91
42337;BME280;27987;51.468;5.464;2022-07-23T10:14:39;101794.81;;;28.57;38.67
42337;BME280;27987;51.468;5.464;2022-07-23T10:17:09;101796.63;;;29.18;38.98
42337;BME280;27987;51.468;5.464;2022-07-23T10:19:39;101796.97;;;30.34;35.63
42337;BME280;27987;51.468;5.464;2022-07-23T10:22:10;101795.25;;;31.19;34.79
42337;BME280;27987;51.468;5.464;2022-07-23T10:25:06;101802.56;;;31.38;33.29
42337;BME280;27987;51.468;5.464;2022-07-23T10:27:49;101796.28;;;31.53;31.56
42337;BME280;27987;51.468;5.464;2022-07-23T10:30:30;101796.25;;;30.10;35.17
42337;BME280;27987;51.468;5.464;2022-07-23T10:33:24;101793.91;;;30.58;34.63
42337;BME280;27987;51.468;5.464;2022-07-23T10:36:07;101784.19;;;31.35;31.84
42337;BME280;27987;51.468;5.464;2022-07-23T10:38:42;101795.66;;;30.94;31.95
42337;BME280;27987;51.468;5.464;2022-07-23T10:41:10;101796.16;;;31.04;30.67
42337;BME280;27987;51.468;5.464;2022-07-23T10:43:37;101805.44;;;30.80;31.00
42337;BME280;27987;51.468;5.464;2022-07-23T10:46:21;101796.44;;;31.44;30.88
42337;BME280;27987;51.468;5.464;2022-07-23T10:49:22;101801.28;;;31.62;31.59
42337;BME280;27987;51.468;5.464;2022-07-23T10:52:16;101796.81;;;32.25;30.51
42337;BME280;27987;51.468;5.464;2022-07-23T10:54:50;101798.28;;;32.47;29.44
42337;BME280;27987;51.468;5.464;2022-07-23T10:57:19;101773.66;;;32.44;28.93
42337;BME280;27987;51.468;5.464;2022-07-23T11:00:21;101790.41;;;32.32;30.31
42337;BME280;27987;51.468;5.464;2022-07-23T11:02:54;101792.59;;;31.54;31.54
42337;BME280;27987;51.468;5.464;2022-07-23T11:05:25;101803.06;;;33.05;28.12
42337;BME280;27987;51.468;5.464;2022-07-23T11:08:17;101797.66;;;33.39;27.71
42337;BME280;27987;51.468;5.464;2022-07-23T11:10:55;101799.28;;;33.53;27.75
42337;BME280;27987;51.468;5.464;2022-07-23T11:13:44;101795.44;;;34.26;26.12
42337;BME280;27987;51.468;5.464;2022-07-23T11:16:23;101788.66;;;34.17;26.99
42337;BME280;27987;51.468;5.464;2022-07-23T11:19:07;101792.94;;;34.31;27.21
42337;BME280;27987;51.468;5.464;2022-07-23T11:21:50;101788.31;;;34.00;28.73
42337;BME280;27987;51.468;5.464;2022-07-23T11:24:24;101779.34;;;34.12;27.25
42337;BME280;27987;51.468;5.464;2022-07-23T11:27:06;101789.84;;;35.03;25.26
42337;BME280;27987;51.468;5.464;2022-07-23T11:29:44;101780.00;;;34.72;25.56
42337;BME280;27987;51.468;5.464;2022-07-23T11:32:35;101786.72;;;35.98;23.64
42337;BME280;27987;51.468;5.464;2022-07-23T11:35:21;101785.13;;;34.16;26.06
42337;BME280;27987;51.468;5.464;2022-07-23T11:37:52;101786.59;;;33.67;26.28
42337;BME280;27987;51.468;5.464;2022-07-23T11:40:27;101785.50;;;32.76;27.91
42337;BME280;27987;51.468;5.464;2022-07-23T11:42:57;101775.38;;;31.90;29.22
42337;BME280;27987;51.468;5.464;2022-07-23T11:45:31;101775.50;;;32.30;30.05
42337;BME280;27987;51.468;5.464;2022-07-23T11:48:20;101783.44;;;32.91;27.33
42337;BME280;27987;51.468;5.464;2022-07-23T11:50:47;101789.22;;;32.95;27.18
42337;BME280;27987;51.468;5.464;2022-07-23T11:53:34;101783.41;;;32.78;27.75
42337;BME280;27987;51.468;5.464;2022-07-23T11:56:05;101782.63;;;33.76;26.77
42337;BME280;27987;51.468;5.464;2022-07-23T11:58:32;101776.88;;;34.04;26.65
42337;BME280;27987;51.468;5.464;2022-07-23T12:01:00;101783.22;;;34.80;25.78
42337;BME280;27987;51.468;5.464;2022-07-23T12:03:27;101778.41;;;35.07;24.88
42337;BME280;27987;51.468;5.464;2022-07-23T12:05:57;101780.94;;;34.27;25.27
42337;BME280;27987;51.468;5.464;2022-07-23T12:08:23;101789.63;;;33.18;27.05
42337;BME280;27987;51.468;5.464;2022-07-23T12:10:52;101782.72;;;33.49;26.29
42337;BME280;27987;51.468;5.464;2022-07-23T12:13:20;101770.16;;;33.82;26.70
42337;BME280;27987;51.468;5.464;2022-07-23T12:15:51;101781.50;;;33.32;26.10
42337;BME280;27987;51.468;5.464;2022-07-23T12:18:22;101771.72;;;34.03;27.00
42337;BME280;27987;51.468;5.464;2022-07-23T12:20:52;101780.34;;;34.50;24.87
42337;BME280;27987;51.468;5.464;2022-07-23T12:23:22;101781.41;;;34.10;25.67
42337;BME280;27987;51.468;5.464;2022-07-23T12:25:52;101769.22;;;35.34;26.20
42337;BME280;27987;51.468;5.464;2022-07-23T12:28:22;101758.16;;;36.45;23.76
42337;BME280;27987;51.468;5.464;2022-07-23T12:30:54;101770.44;;;37.30;23.42
42337;BME280;27987;51.468;5.464;2022-07-23T12:33:24;101774.19;;;37.29;22.16
42337;BME280;27987;51.468;5.464;2022-07-23T12:35:53;101766.41;;;37.09;22.64
42337;BME280;27987;51.468;5.464;2022-07-23T12:38:23;101765.03;;;37.58;22.45
42337;BME280;27987;51.468;5.464;2022-07-23T12:40:54;101756.41;;;36.62;22.55
42337;BME280;27987;51.468;5.464;2022-07-23T12:43:24;101750.69;;;35.67;23.38
42337;BME280;27987;51.468;5.464;2022-07-23T12:45:54;101748.66;;;36.12;22.97
42337;BME280;27987;51.468;5.464;2022-07-23T12:48:28;101755.84;;;35.57;23.94
42337;BME280;27987;51.468;5.464;2022-07-23T12:51:01;101750.19;;;34.85;24.76
42337;BME280;27987;51.468;5.464;2022-07-23T12:53:31;101742.59;;;35.67;24.41
42337;BME280;27987;51.468;5.464;2022-07-23T12:56:04;101758.53;;;36.48;22.71
42337;BME280;27987;51.468;5.464;2022-07-23T12:58:46;101759.84;;;36.69;22.80
42337;BME280;27987;51.468;5.464;2022-07-23T13:01:25;101757.66;;;36.24;23.19
42337;BME280;27987;51.468;5.464;2022-07-23T13:03:59;101755.97;;;34.38;25.46